sensor_id;sensor_type;location;lat;lon;timestamp;pressure;altitude;pressure_sealevel;temperature;humidity
36600;BME280;35385;55.668;37.508;2023-06-14T00:00:02;99637.25;;;15.17;100.00
36600;BME280;35385;55.668;37.508;2023-06-14T00:01:05;99639.94;;;15.17;100.00
36600;BME280;35385;55.668;37.508;2023-06-14T00:02:06;99638.75;;;15.12;100.00
36600;BME280;35385;55.668;37.508;2023-06-14T00:03:09;99637.97;;;15.02;100.00
36600;BME280;35385;55.668;37.508;2023-06-14T00:04:10;99638.75;;;14.94;100.00
36600;BME280;35385;55.668;37.508;2023-06-14T00:05:10;99640.91;;;14.91;100.00
36600;BME280;35385;55.668;37.508;2023-06-14T00:06:12;99634.13;;;14.86;100.00
36600;BME280;35385;55.668;37.508;2023-06-14T00:07:12;99631.16;;;14.90;100.00
36600;BME280;35385;55.668;37.508;2023-06-14T00:08:13;99637.06;;;14.93;100.00
36600;BME280;35385;55.668;37.508;2023-06-14T00:09:14;99634.91;;;14.97;100.00
36600;BME280;35385;55.668;37.508;2023-06-14T00:10:17;99641.66;;;15.01;100.00
36600;BME280;35385;55.668;37.508;2023-06-14T00:11:17;99635.13;;;15.03;100.00
36600;BME280;35385;55.668;37.508;2023-06-14T00:12:18;99635.47;;;15.00;100.00
36600;BME280;35385;55.668;37.508;2023-06-14T00:13:18;99648.06;;;15.00;100.00
36600;BME280;35385;55.668;37.508;2023-06-14T00:14:19;99641.84;;;14.99;100.00
36600;BME280;35385;55.668;37.508;2023-06-14T00:15:19;99642.50;;;15.01;100.00
36600;BME280;35385;55.668;37.508;2023-06-14T00:16:21;99641.50;;;15.02;100.00
36600;BME280;35385;55.668;37.508;2023-06-14T00:17:21;99646.88;;;15.02;100.00
36600;BME280;35385;55.668;37.508;2023-06-14T00:18:22;99642.50;;;15.01;100.00
36600;BME280;35385;55.668;37.508;2023-06-14T00:19:27;99641.84;;;14.99;100.00
36600;BME280;35385;55.668;37.508;2023-06-14T00:20:27;99645.53;;;14.98;100.00
36600;BME280;35385;55.668;37.508;2023-06-14T00:21:28;99646.53;;;14.97;100.00
36600;BME280;35385;55.668;37.508;2023-06-14T00:22:29;99643.84;;;14.97;100.00
36600;BME280;35385;55.668;37.508;2023-06-14T00:23:31;99640.31;;;14.97;100.00
36600;BME280;35385;55.668;37.508;2023-06-14T00:24:31;99636.75;;;14.96;100.00
36600;BME280;35385;55.668;37.508;2023-06-14T00:25:31;99633.91;;;14.98;100.00
36600;BME280;35385;55.668;37.508;2023-06-14T00:26:32;99640.16;;;14.98;100.00
36600;BME280;35385;55.668;37.508;2023-06-14T00:27:32;99640.84;;;15.00;100.00
36600;BME280;35385;55.668;37.508;2023-06-14T00:28:32;99640.84;;;15.00;100.00
36600;BME280;35385;55.668;37.508;2023-06-14T00:29:33;99643.00;;;14.97;100.00
36600;BME280;35385;55.668;37.508;2023-06-14T00:30:33;99646.81;;;14.94;100.00
36600;BME280;35385;55.668;37.508;2023-06-14T00:31:33;99637.06;;;14.93;100.00
36600;BME280;35385;55.668;37.508;2023-06-14T00:32:34;99638.91;;;14.93;100.00
36600;BME280;35385;55.668;37.508;2023-06-14T00:33:34;99642.28;;;14.95;100.00
36600;BME280;35385;55.668;37.508;2023-06-14T00:34:35;99641.44;;;14.94;100.00
36600;BME280;35385;55.668;37.508;2023-06-14T00:35:35;99641.44;;;14.94;100.00
36600;BME280;35385;55.668;37.508;2023-06-14T00:36:36;99635.75;;;14.97;100.00
36600;BME280;35385;55.668;37.508;2023-06-14T00:37:36;99636.59;;;14.98;100.00
36600;BME280;35385;55.668;37.508;2023-06-14T00:38:37;99638.16;;;15.00;100.00
36600;BME280;35385;55.668;37.508;2023-06-14T00:39:37;99634.44;;;15.01;100.00
36600;BME280;35385;55.668;37.508;2023-06-14T00:40:37;99638.31;;;14.99;100.00
36600;BME280;35385;55.668;37.508;2023-06-14T00:42:39;99638.16;;;14.82;100.00
36600;BME280;35385;55.668;37.508;2023-06-14T00:43:39;99638.59;;;14.78;100.00
36600;BME280;35385;55.668;37.508;2023-06-14T00:44:39;99637.63;;;14.79;100.00
36600;BME280;35385;55.668;37.508;2023-06-14T00:45:40;99630.53;;;14.78;100.00
36600;BME280;35385;55.668;37.508;2023-06-14T00:46:40;99633.38;;;14.76;100.00
36600;BME280;35385;55.668;37.508;2023-06-14T00:47:41;99631.16;;;14.72;100.00
36600;BME280;35385;55.668;37.508;2023-06-14T00:48:41;99634.00;;;14.70;100.00
36600;BME280;35385;55.668;37.508;2023-06-14T00:49:42;99641.97;;;14.62;100.00
36600;BME280;35385;55.668;37.508;2023-06-14T00:50:43;99636.91;;;14.59;100.00
36600;BME280;35385;55.668;37.508;2023-06-14T00:51:45;99635.69;;;14.54;100.00
36600;BME280;35385;55.668;37.508;2023-06-14T00:52:46;99644.06;;;14.50;100.00
36600;BME280;35385;55.668;37.508;2023-06-14T00:53:46;99636.28;;;14.47;100.00
36600;BME280;35385;55.668;37.508;2023-06-14T00:54:48;99641.81;;;14.46;100.00
36600;BME280;35385;55.668;37.508;2023-06-14T00:55:48;99640.13;;;14.45;100.00
36600;BME280;35385;55.668;37.508;2023-06-14T00:56:48;99632.53;;;14.40;100.00
36600;BME280;35385;55.668;37.508;2023-06-14T00:57:49;99637.91;;;14.31;100.00
36600;BME280;35385;55.668;37.508;2023-06-14T00:58:50;99641.91;;;14.27;100.00
36600;BME280;35385;55.668;37.508;2023-06-14T00:59:51;99635.69;;;14.26;100.00
36600;BME280;35385;55.668;37.508;2023-06-14T01:00:51;99637.06;;;14.30;100.00
36600;BME280;35385;55.668;37.508;2023-06-14T01:01:51;99636.78;;;14.33;100.00
36600;BME280;35385;55.668;37.508;2023-06-14T01:02:52;99637.47;;;14.35;100.00
36600;BME280;35385;55.668;37.508;2023-06-14T01:03:53;99637.47;;;14.35;100.00
36600;BME280;35385;55.668;37.508;2023-06-14T01:04:54;99636.22;;;14.30;100.00
36600;BME280;35385;55.668;37.508;2023-06-14T01:06:15;99640.22;;;14.26;100.00
36600;BME280;35385;55.668;37.508;2023-06-14T01:07:41;99641.06;;;14.26;100.00
36600;BME280;35385;55.668;37.508;2023-06-14T01:09:07;99633.72;;;14.28;100.00
36600;BME280;35385;55.668;37.508;2023-06-14T01:11:24;99632.53;;;14.40;100.00
36600;BME280;35385;55.668;37.508;2023-06-14T01:12:31;99642.94;;;14.43;100.00
36600;BME280;35385;55.668;37.508;2023-06-14T01:13:36;99638.28;;;14.45;100.00
36600;BME280;35385;55.668;37.508;2023-06-14T01:14:38;99634.22;;;14.41;100.00
36600;BME280;35385;55.668;37.508;2023-06-14T01:15:39;99639.88;;;14.38;100.00
36600;BME280;35385;55.668;37.508;2023-06-14T01:16:40;99637.19;;;14.38;100.00
36600;BME280;35385;55.668;37.508;2023-06-14T01:17:41;99636.19;;;14.39;100.00
36600;BME280;35385;55.668;37.508;2023-06-14T01:18:44;99639.88;;;14.38;100.00
36600;BME280;35385;55.668;37.508;2023-06-14T01:19:48;99640.47;;;14.32;100.00
36600;BME280;35385;55.668;37.508;2023-06-14T01:20:48;99641.06;;;14.26;100.00
36600;BME280;35385;55.668;37.508;2023-06-14T01:21:49;99640.66;;;14.21;100.00
36600;BME280;35385;55.668;37.508;2023-06-14T01:22:54;99642.66;;;14.19;100.00
36600;BME280;35385;55.668;37.508;2023-06-14T01:23:54;99638.44;;;14.16;100.00
36600;BME280;35385;55.668;37.508;2023-06-14T01:24:55;99637.28;;;14.19;100.00
36600;BME280;35385;55.668;37.508;2023-06-14T01:25:56;99636.84;;;14.24;100.00
36600;BME280;35385;55.668;37.508;2023-06-14T01:26:57;99638.25;;;14.28;100.00
36600;BME280;35385;55.668;37.508;2023-06-14T01:27:59;99638.91;;;14.30;100.00
36600;BME280;35385;55.668;37.508;2023-06-14T01:29:00;99639.22;;;14.27;100.00
36600;BME280;35385;55.668;37.508;2023-06-14T01:30:01;99647.28;;;14.27;100.00
36600;BME280;35385;55.668;37.508;2023-06-14T01:31:03;99635.69;;;14.26;100.00
36600;BME280;35385;55.668;37.508;2023-06-14T01:32:04;99636.56;;;14.27;100.00
36600;BME280;35385;55.668;37.508;2023-06-14T01:33:05;99640.09;;;14.27;100.00
36600;BME280;35385;55.668;37.508;2023-06-14T01:34:06;99638.91;;;14.30;100.00
36600;BME280;35385;55.668;37.508;2023-06-14T01:35:06;99640.47;;;14.32;100.00
36600;BME280;35385;55.668;37.508;2023-06-14T01:36:07;99640.84;;;14.37;100.00
36600;BME280;35385;55.668;37.508;2023-06-14T01:37:08;99647.47;;;14.43;100.00
36600;BME280;35385;55.668;37.508;2023-06-14T01:38:09;99652.84;;;14.43;100.00
36600;BME280;35385;55.668;37.508;2023-06-14T01:39:13;99652.84;;;14.43;100.00
36600;BME280;35385;55.668;37.508;2023-06-14T01:40:14;99654.16;;;14.39;100.00
36600;BME280;35385;55.668;37.508;2023-06-14T01:41:15;99644.13;;;14.41;100.00
36600;BME280;35385;55.668;37.508;2023-06-14T01:42:16;99652.84;;;14.43;100.00
36600;BME280;35385;55.668;37.508;2023-06-14T01:43:17;99650.72;;;14.46;100.00
36600;BME280;35385;55.668;37.508;2023-06-14T01:44:18;99650.56;;;14.48;100.00
36600;BME280;35385;55.668;37.508;2023-06-14T01:45:19;99651.28;;;14.50;100.00
36600;BME280;35385;55.668;37.508;2023-06-14T01:46:20;99644.06;;;14.50;100.00
36600;BME280;35385;55.668;37.508;2023-06-14T01:47:20;99644.06;;;14.50;100.00
36600;BME280;35385;55.668;37.508;2023-06-14T01:48:21;99650.41;;;14.49;100.00
36600;BME280;35385;55.668;37.508;2023-06-14T01:49:21;99646.66;;;14.42;100.00
36600;BME280;35385;55.668;37.508;2023-06-14T01:50:22;99651.75;;;14.36;100.00
36600;BME280;35385;55.668;37.508;2023-06-14T01:51:22;99650.91;;;14.35;100.00
36600;BME280;35385;55.668;37.508;2023-06-14T01:52:22;99647.22;;;14.36;100.00
36600;BME280;35385;55.668;37.508;2023-06-14T01:53:24;99653.44;;;14.37;100.00
36600;BME280;35385;55.668;37.508;2023-06-14T01:54:25;99658.25;;;14.33;100.00
36600;BME280;35385;55.668;37.508;2023-06-14T01:55:25;99649.00;;;14.28;100.00
36600;BME280;35385;55.668;37.508;2023-06-14T01:56:26;99657.19;;;14.26;100.00
36600;BME280;35385;55.668;37.508;2023-06-14T01:57:27;99656.03;;;14.29;100.00
36600;BME280;35385;55.668;37.508;2023-06-14T01:58:27;99652.34;;;14.30;100.00
36600;BME280;35385;55.668;37.508;2023-06-14T01:59:28;99654.34;;;14.28;100.00
36600;BME280;35385;55.668;37.508;2023-06-14T02:00:28;99650.81;;;14.27;100.00
36600;BME280;35385;55.668;37.508;2023-06-14T02:01:28;99653.50;;;14.27;100.00
36600;BME280;35385;55.668;37.508;2023-06-14T02:02:29;99652.81;;;14.25;100.00
36600;BME280;35385;55.668;37.508;2023-06-14T02:03:29;99651.28;;;14.23;100.00
36600;BME280;35385;55.668;37.508;2023-06-14T02:04:30;99650.28;;;14.24;100.00
36600;BME280;35385;55.668;37.508;2023-06-14T02:05:30;99652.66;;;14.27;100.00
36600;BME280;35385;55.668;37.508;2023-06-14T02:06:30;99644.47;;;14.28;100.00
36600;BME280;35385;55.668;37.508;2023-06-14T02:07:31;99645.81;;;14.32;100.00
36600;BME280;35385;55.668;37.508;2023-06-14T02:08:31;99646.22;;;14.37;100.00
36600;BME280;35385;55.668;37.508;2023-06-14T02:09:32;99636.19;;;14.39;100.00
36600;BME280;35385;55.668;37.508;2023-06-14T02:10:32;99640.44;;;14.42;100.00
36600;BME280;35385;55.668;37.508;2023-06-14T02:11:32;99647.66;;;14.41;100.00
36600;BME280;35385;55.668;37.508;2023-06-14T02:12:33;99635.47;;;14.37;100.00
36600;BME280;35385;55.668;37.508;2023-06-14T02:13:33;99640.00;;;14.37;100.00
36600;BME280;35385;55.668;37.508;2023-06-14T02:14:34;99636.19;;;14.39;100.00
36600;BME280;35385;55.668;37.508;2023-06-14T02:15:35;99635.91;;;14.42;100.00
36600;BME280;35385;55.668;37.508;2023-06-14T02:16:35;99638.97;;;14.47;100.00
36600;BME280;35385;55.668;37.508;2023-06-14T02:17:35;99637.53;;;14.53;100.00
36600;BME280;35385;55.668;37.508;2023-06-14T02:18:36;99639.75;;;14.58;100.00
36600;BME280;35385;55.668;37.508;2023-06-14T02:19:56;99640.13;;;14.63;100.00
36600;BME280;35385;55.668;37.508;2023-06-14T02:20:57;99637.00;;;14.67;100.00
36600;BME280;35385;55.668;37.508;2023-06-14T02:21:57;99642.09;;;14.70;100.00
36600;BME280;35385;55.668;37.508;2023-06-14T02:22:58;99638.22;;;14.73;100.00
36600;BME280;35385;55.668;37.508;2023-06-14T02:23:58;99637.91;;;14.76;100.00
36600;BME280;35385;55.668;37.508;2023-06-14T02:24:58;99637.63;;;14.79;100.00
36600;BME280;35385;55.668;37.508;2023-06-14T02:25:59;99638.31;;;14.81;100.00
36600;BME280;35385;55.668;37.508;2023-06-14T02:26:59;99636.16;;;14.84;100.00
36600;BME280;35385;55.668;37.508;2023-06-14T02:28:00;99637.53;;;14.89;100.00
36600;BME280;35385;55.668;37.508;2023-06-14T02:29:00;99635.53;;;14.91;100.00
36600;BME280;35385;55.668;37.508;2023-06-14T02:30:01;99638.91;;;14.93;100.00
36600;BME280;35385;55.668;37.508;2023-06-14T02:31:01;99634.38;;;14.93;100.00
36600;BME280;35385;55.668;37.508;2023-06-14T02:32:02;99642.59;;;14.92;100.00
36600;BME280;35385;55.668;37.508;2023-06-14T02:33:02;99642.59;;;14.92;100.00
36600;BME280;35385;55.668;37.508;2023-06-14T02:34:03;99647.66;;;14.95;100.00
36600;BME280;35385;55.668;37.508;2023-06-14T02:35:03;99641.00;;;14.99;100.00
36600;BME280;35385;55.668;37.508;2023-06-14T02:36:05;99643.34;;;15.02;100.00
36600;BME280;35385;55.668;37.508;2023-06-14T02:37:06;99650.13;;;15.06;100.00
36600;BME280;35385;55.668;37.508;2023-06-14T02:38:06;99645.28;;;15.09;100.00
36600;BME280;35385;55.668;37.508;2023-06-14T02:39:07;99648.16;;;15.16;100.00
36600;BME280;35385;55.668;37.508;2023-06-14T02:40:09;99647.03;;;15.18;100.00
36600;BME280;35385;55.668;37.508;2023-06-14T02:41:10;99645.72;;;15.23;100.00
36600;BME280;35385;55.668;37.508;2023-06-14T02:42:10;99651.94;;;15.23;100.00
36600;BME280;35385;55.668;37.508;2023-06-14T02:43:11;99647.78;;;15.29;100.00
36600;BME280;35385;55.668;37.508;2023-06-14T02:44:12;99649.44;;;15.30;100.00
36600;BME280;35385;55.668;37.508;2023-06-14T02:45:13;99651.69;;;15.34;100.00
36600;BME280;35385;55.668;37.508;2023-06-14T02:46:13;99654.06;;;15.37;100.00
36600;BME280;35385;55.668;37.508;2023-06-14T02:47:15;99651.06;;;15.40;100.00
36600;BME280;35385;55.668;37.508;2023-06-14T02:48:15;99654.59;;;15.41;100.00
36600;BME280;35385;55.668;37.508;2023-06-14T02:49:15;99653.94;;;15.47;100.00
36600;BME280;35385;55.668;37.508;2023-06-14T02:50:16;99653.66;;;15.50;100.00
36600;BME280;35385;55.668;37.508;2023-06-14T02:51:17;99655.03;;;15.54;100.00
36600;BME280;35385;55.668;37.508;2023-06-14T02:52:17;99652.22;;;15.55;100.00
36600;BME280;35385;55.668;37.508;2023-06-14T02:53:17;99659.88;;;15.50;100.00
36600;BME280;35385;55.668;37.508;2023-06-14T02:54:18;99651.91;;;15.41;100.00
36600;BME280;35385;55.668;37.508;2023-06-14T02:55:18;99656.59;;;15.39;100.00
36600;BME280;35385;55.668;37.508;2023-06-14T02:56:19;99656.28;;;15.42;100.00
36600;BME280;35385;55.668;37.508;2023-06-14T02:57:20;99662.72;;;15.49;100.00
36600;BME280;35385;55.668;37.508;2023-06-14T02:58:20;99659.44;;;15.55;100.00
36600;BME280;35385;55.668;37.508;2023-06-14T02:59:21;99660.97;;;15.58;100.00
36600;BME280;35385;55.668;37.508;2023-06-14T03:00:21;99657.78;;;15.62;100.00
36600;BME280;35385;55.668;37.508;2023-06-14T03:01:22;99667.94;;;15.68;100.00
36600;BME280;35385;55.668;37.508;2023-06-14T03:02:23;99663.59;;;15.75;100.00
36600;BME280;35385;55.668;37.508;2023-06-14T03:03:23;99665.66;;;15.81;100.00
36600;BME280;35385;55.668;37.508;2023-06-14T03:04:24;99660.63;;;15.86;100.00
36600;BME280;35385;55.668;37.508;2023-06-14T03:05:25;99658.28;;;15.91;100.00
36600;BME280;35385;55.668;37.508;2023-06-14T03:06:28;99662.19;;;15.97;100.00
36600;BME280;35385;55.668;37.508;2023-06-14T03:07:30;99657.00;;;16.04;100.00
36600;BME280;35385;55.668;37.508;2023-06-14T03:08:30;99659.22;;;16.08;100.00
36600;BME280;35385;55.668;37.508;2023-06-14T03:09:38;99663.97;;;16.14;100.00
36600;BME280;35385;55.668;37.508;2023-06-14T03:10:39;99658.59;;;16.14;100.00
36600;BME280;35385;55.668;37.508;2023-06-14T03:11:39;99650.66;;;16.13;100.00
36600;BME280;35385;55.668;37.508;2023-06-14T03:12:39;99657.69;;;16.06;100.00
36600;BME280;35385;55.668;37.508;2023-06-14T03:13:40;99660.19;;;15.99;100.00
36600;BME280;35385;55.668;37.508;2023-06-14T03:14:40;99662.03;;;15.99;100.00
36600;BME280;35385;55.668;37.508;2023-06-14T03:15:42;99662.34;;;15.96;100.00
36600;BME280;35385;55.668;37.508;2023-06-14T03:16:43;99660.03;;;16.01;100.00
36600;BME280;35385;55.668;37.508;2023-06-14T03:17:44;99664.91;;;15.97;100.00
36600;BME280;35385;55.668;37.508;2023-06-14T03:18:45;99672.13;;;15.97;100.00
36600;BME280;35385;55.668;37.508;2023-06-14T03:19:45;99663.03;;;15.98;100.00
36600;BME280;35385;55.668;37.508;2023-06-14T03:20:46;99672.16;;;16.05;100.00
36600;BME280;35385;55.668;37.508;2023-06-14T03:21:46;99665.13;;;16.12;100.00
36600;BME280;35385;55.668;37.508;2023-06-14T03:22:47;99664.47;;;16.18;100.00
36600;BME280;35385;55.668;37.508;2023-06-14T03:23:47;99658.59;;;16.22;100.00
36600;BME280;35385;55.668;37.508;2023-06-14T03:24:48;99664.84;;;16.31;100.00
36600;BME280;35385;55.668;37.508;2023-06-14T03:25:49;99665.91;;;16.38;100.00
36600;BME280;35385;55.668;37.508;2023-06-14T03:26:49;99663.22;;;16.46;100.00
36600;BME280;35385;55.668;37.508;2023-06-14T03:27:50;99666.44;;;16.50;100.00
36600;BME280;35385;55.668;37.508;2023-06-14T03:28:50;99656.84;;;16.55;100.00
36600;BME280;35385;55.668;37.508;2023-06-14T03:29:50;99656.19;;;16.61;100.00
36600;BME280;35385;55.668;37.508;2023-06-14T03:30:51;99653.88;;;16.67;100.00
36600;BME280;35385;55.668;37.508;2023-06-14T03:32:01;99656.94;;;16.72;100.00
36600;BME280;35385;55.668;37.508;2023-06-14T03:33:02;99660.78;;;16.77;100.00
36600;BME280;35385;55.668;37.508;2023-06-14T03:34:02;99663.69;;;16.84;100.00
36600;BME280;35385;55.668;37.508;2023-06-14T03:35:03;99658.81;;;16.87;100.00
36600;BME280;35385;55.668;37.508;2023-06-14T03:36:03;99657.59;;;16.90;100.00
36600;BME280;35385;55.668;37.508;2023-06-14T03:37:04;99653.72;;;16.92;100.00
36600;BME280;35385;55.668;37.508;2023-06-14T03:38:04;99660.50;;;16.96;100.00
36600;BME280;35385;55.668;37.508;2023-06-14T03:39:05;99657.47;;;17.00;100.00
36600;BME280;35385;55.668;37.508;2023-06-14T03:40:05;99656.63;;;16.99;100.00
36600;BME280;35385;55.668;37.508;2023-06-14T03:41:06;99657.78;;;16.96;100.00
36600;BME280;35385;55.668;37.508;2023-06-14T03:42:07;99655.59;;;17.00;100.00
36600;BME280;35385;55.668;37.508;2023-06-14T03:43:07;99655.59;;;17.08;100.00
36600;BME280;35385;55.668;37.508;2023-06-14T03:44:07;99651.22;;;17.07;100.00
36600;BME280;35385;55.668;37.508;2023-06-14T03:45:08;99655.09;;;17.13;100.00
36600;BME280;35385;55.668;37.508;2023-06-14T03:46:08;99660.31;;;17.22;100.00
36600;BME280;35385;55.668;37.508;2023-06-14T03:47:08;99657.28;;;17.25;100.00
36600;BME280;35385;55.668;37.508;2023-06-14T03:48:09;99652.25;;;17.30;100.00
36600;BME280;35385;55.668;37.508;2023-06-14T03:49:09;99648.00;;;17.36;100.00
36600;BME280;35385;55.668;37.508;2023-06-14T03:50:10;99654.91;;;17.39;100.00
36600;BME280;35385;55.668;37.508;2023-06-14T03:51:11;99651.88;;;17.42;100.00
36600;BME280;35385;55.668;37.508;2023-06-14T03:52:12;99656.94;;;17.45;100.00
36600;BME280;35385;55.668;37.508;2023-06-14T03:53:14;99654.06;;;17.54;100.00
36600;BME280;35385;55.668;37.508;2023-06-14T03:54:14;99660.63;;;17.60;100.00
36600;BME280;35385;55.668;37.508;2023-06-14T03:55:15;99657.56;;;17.63;100.00
36600;BME280;35385;55.668;37.508;2023-06-14T03:56:16;99662.97;;;17.63;100.00
36600;BME280;35385;55.668;37.508;2023-06-14T03:57:16;99660.44;;;17.61;100.00
36600;BME280;35385;55.668;37.508;2023-06-14T03:58:17;99659.44;;;17.62;100.00
36600;BME280;35385;55.668;37.508;2023-06-14T03:59:17;99664.19;;;17.69;100.00
36600;BME280;35385;55.668;37.508;2023-06-14T04:00:17;99658.59;;;17.78;100.00
36600;BME280;35385;55.668;37.508;2023-06-14T04:01:18;99666.84;;;17.85;100.00
36600;BME280;35385;55.668;37.508;2023-06-14T04:02:18;99663.97;;;17.86;100.00
36600;BME280;35385;55.668;37.508;2023-06-14T04:03:19;99668.19;;;17.89;100.00
36600;BME280;35385;55.668;37.508;2023-06-14T04:04:25;99662.75;;;17.97;100.00
36600;BME280;35385;55.668;37.508;2023-06-14T04:05:28;99673.19;;;18.08;100.00
36600;BME280;35385;55.668;37.508;2023-06-14T04:06:29;99666.09;;;18.15;100.00
36600;BME280;35385;55.668;37.508;2023-06-14T04:07:32;99660.13;;;18.20;100.00
36600;BME280;35385;55.668;37.508;2023-06-14T04:08:35;99665.19;;;18.23;100.00
36600;BME280;35385;55.668;37.508;2023-06-14T04:09:35;99661.13;;;18.27;100.00
36600;BME280;35385;55.668;37.508;2023-06-14T04:10:36;99663.00;;;18.26;100.00
36600;BME280;35385;55.668;37.508;2023-06-14T04:11:36;99665.19;;;18.23;100.00
36600;BME280;35385;55.668;37.508;2023-06-14T04:12:37;99659.50;;;18.18;100.00
36600;BME280;35385;55.668;37.508;2023-06-14T04:13:37;99665.69;;;18.26;100.00
36600;BME280;35385;55.668;37.508;2023-06-14T04:14:39;99666.38;;;18.28;100.00
36600;BME280;35385;55.668;37.508;2023-06-14T04:15:40;99666.13;;;18.38;100.00
36600;BME280;35385;55.668;37.508;2023-06-14T04:16:46;99660.72;;;18.46;100.00
36600;BME280;35385;55.668;37.508;2023-06-14T04:17:46;99665.38;;;18.52;100.00
36600;BME280;35385;55.668;37.508;2023-06-14T04:18:47;99663.84;;;18.58;100.00
36600;BME280;35385;55.668;37.508;2023-06-14T04:19:48;99660.47;;;18.56;100.00
36600;BME280;35385;55.668;37.508;2023-06-14T04:20:48;99665.03;;;18.55;100.00
36600;BME280;35385;55.668;37.508;2023-06-14T04:21:49;99663.34;;;18.54;100.00
36600;BME280;35385;55.668;37.508;2023-06-14T04:22:50;99666.47;;;18.43;100.00
36600;BME280;35385;55.668;37.508;2023-06-14T04:23:51;99664.44;;;18.45;100.00
36600;BME280;35385;55.668;37.508;2023-06-14T04:24:52;99658.69;;;18.40;100.00
36600;BME280;35385;55.668;37.508;2023-06-14T04:25:53;99660.72;;;18.46;100.00
36600;BME280;35385;55.668;37.508;2023-06-14T04:26:53;99663.84;;;18.58;100.00
36600;BME280;35385;55.668;37.508;2023-06-14T04:27:54;99662.69;;;18.60;100.00
36600;BME280;35385;55.668;37.508;2023-06-14T04:28:55;99664.38;;;18.53;100.00
36600;BME280;35385;55.668;37.508;2023-06-14T04:29:56;99664.16;;;18.63;100.00
36600;BME280;35385;55.668;37.508;2023-06-14T04:30:58;99665.69;;;18.65;100.00
36600;BME280;35385;55.668;37.508;2023-06-14T04:32:01;99669.22;;;18.66;100.00
36600;BME280;35385;55.668;37.508;2023-06-14T04:33:02;99655.59;;;18.59;100.00
36600;BME280;35385;55.668;37.508;2023-06-14T04:34:05;99655.88;;;18.64;99.49
36600;BME280;35385;55.668;37.508;2023-06-14T04:35:06;99654.41;;;18.85;99.64
36600;BME280;35385;55.668;37.508;2023-06-14T04:36:07;99656.75;;;18.88;97.78
36600;BME280;35385;55.668;37.508;2023-06-14T04:37:08;99650.31;;;18.89;97.44
36600;BME280;35385;55.668;37.508;2023-06-14T04:38:08;99657.72;;;18.95;96.19
36600;BME280;35385;55.668;37.508;2023-06-14T04:39:11;99652.66;;;19.15;96.09
36600;BME280;35385;55.668;37.508;2023-06-14T04:40:13;99657.16;;;19.22;95.89
36600;BME280;35385;55.668;37.508;2023-06-14T04:41:13;99654.66;;;19.35;95.82
36600;BME280;35385;55.668;37.508;2023-06-14T04:42:14;99650.56;;;19.39;94.37
36600;BME280;35385;55.668;37.508;2023-06-14T04:43:14;99652.63;;;19.37;93.45
36600;BME280;35385;55.668;37.508;2023-06-14T04:44:17;99657.25;;;19.52;93.24
36600;BME280;35385;55.668;37.508;2023-06-14T04:45:18;99655.78;;;19.64;91.37
36600;BME280;35385;55.668;37.508;2023-06-14T04:46:19;99658.63;;;19.48;91.76
36600;BME280;35385;55.668;37.508;2023-06-14T04:47:20;99654.47;;;19.60;92.09
36600;BME280;35385;55.668;37.508;2023-06-14T04:48:21;99654.69;;;19.73;90.97
36600;BME280;35385;55.668;37.508;2023-06-14T04:49:22;99656.75;;;19.86;91.63
36600;BME280;35385;55.668;37.508;2023-06-14T04:50:23;99661.88;;;19.95;90.45
36600;BME280;35385;55.668;37.508;2023-06-14T04:51:24;99651.22;;;19.94;88.84
36600;BME280;35385;55.668;37.508;2023-06-14T04:52:29;99662.72;;;19.81;89.56
36600;BME280;35385;55.668;37.508;2023-06-14T04:53:30;99661.31;;;20.00;87.92
36600;BME280;35385;55.668;37.508;2023-06-14T04:54:31;99652.31;;;20.29;87.57
36600;BME280;35385;55.668;37.508;2023-06-14T04:55:33;99650.81;;;20.56;87.36
36600;BME280;35385;55.668;37.508;2023-06-14T04:56:33;99661.91;;;20.75;85.99
36600;BME280;35385;55.668;37.508;2023-06-14T04:57:34;99662.28;;;20.94;84.89
36600;BME280;35385;55.668;37.508;2023-06-14T04:58:35;99657.38;;;20.82;83.43
36600;BME280;35385;55.668;37.508;2023-06-14T04:59:35;99652.34;;;20.65;84.15
36600;BME280;35385;55.668;37.508;2023-06-14T05:00:36;99657.06;;;20.56;83.27
36600;BME280;35385;55.668;37.508;2023-06-14T05:01:37;99651.41;;;20.72;83.82
36600;BME280;35385;55.668;37.508;2023-06-14T05:02:37;99662.03;;;20.89;83.19
36600;BME280;35385;55.668;37.508;2023-06-14T05:03:38;99658.53;;;20.95;82.71
36600;BME280;35385;55.668;37.508;2023-06-14T05:04:38;99657.94;;;20.78;83.40
36600;BME280;35385;55.668;37.508;2023-06-14T05:05:40;99665.25;;;20.77;83.25
36600;BME280;35385;55.668;37.508;2023-06-14T05:06:41;99655.50;;;21.04;82.09
36600;BME280;35385;55.668;37.508;2023-06-14T05:07:41;99656.56;;;21.25;81.64
36600;BME280;35385;55.668;37.508;2023-06-14T05:08:42;99655.53;;;21.53;81.24
36600;BME280;35385;55.668;37.508;2023-06-14T05:09:42;99651.97;;;21.81;80.24
36600;BME280;35385;55.668;37.508;2023-06-14T05:10:43;99663.09;;;21.86;79.88
36600;BME280;35385;55.668;37.508;2023-06-14T05:11:44;99665.25;;;21.97;79.61
36600;BME280;35385;55.668;37.508;2023-06-14T05:12:44;99655.50;;;21.75;78.21
36600;BME280;35385;55.668;37.508;2023-06-14T05:13:45;99663.94;;;21.86;78.17
36600;BME280;35385;55.668;37.508;2023-06-14T05:14:46;99658.75;;;21.92;77.10
36600;BME280;35385;55.668;37.508;2023-06-14T05:15:47;99665.53;;;22.02;77.39
36600;BME280;35385;55.668;37.508;2023-06-14T05:16:47;99661.47;;;22.19;76.83
36600;BME280;35385;55.668;37.508;2023-06-14T05:17:48;99662.56;;;22.32;77.02